sensor_id;sensor_type;location;lat;lon;timestamp;pressure;altitude;pressure_sealevel;temperature;humidity
62057;BME280;48016;50.284;18.860;2022-10-31T00:00:58;98556.62;;;11.45;83.66
62057;BME280;48016;50.284;18.860;2022-10-31T00:03:37;98557.80;;;11.44;83.70
62057;BME280;48016;50.284;18.860;2022-10-31T00:06:04;98555.42;;;11.41;83.82
62057;BME280;48016;50.284;18.860;2022-10-31T00:08:31;98555.08;;;11.39;83.77
62057;BME280;48016;50.284;18.860;2022-10-31T00:10:57;98556.35;;;11.36;83.66
62057;BME280;48016;50.284;18.860;2022-10-31T00:13:24;98553.12;;;11.33;83.66
62057;BME280;48016;50.284;18.860;2022-10-31T00:15:51;98554.29;;;11.30;83.51
62057;BME280;48016;50.284;18.860;2022-10-31T00:18:18;98556.04;;;11.27;83.68
62057;BME280;48016;50.284;18.860;2022-10-31T00:20:44;98555.82;;;11.26;83.78
62057;BME280;48016;50.284;18.860;2022-10-31T00:23:12;98553.93;;;11.28;83.83
62057;BME280;48016;50.284;18.860;2022-10-31T00:25:39;98556.02;;;11.26;83.85
62057;BME280;48016;50.284;18.860;2022-10-31T00:28:09;98556.30;;;11.22;83.87
62057;BME280;48016;50.284;18.860;2022-10-31T00:30:41;98554.98;;;11.21;83.91
62057;BME280;48016;50.284;18.860;2022-10-31T00:33:08;98553.89;;;11.20;83.83
62057;BME280;48016;50.284;18.860;2022-10-31T00:35:34;98550.92;;;11.16;83.87
62057;BME280;48016;50.284;18.860;2022-10-31T00:38:01;98548.68;;;11.14;83.83
62057;BME280;48016;50.284;18.860;2022-10-31T00:40:29;98549.93;;;11.09;83.89
62057;BME280;48016;50.284;18.860;2022-10-31T00:42:55;98549.88;;;11.06;83.99
62057;BME280;48016;50.284;18.860;2022-10-31T00:45:22;98555.85;;;11.02;84.21
62057;BME280;48016;50.284;18.860;2022-10-31T00:47:49;98557.95;;;10.98;84.18
62057;BME280;48016;50.284;18.860;2022-10-31T00:50:15;98557.21;;;10.95;84.37
62057;BME280;48016;50.284;18.860;2022-10-31T00:52:42;98556.52;;;10.91;84.52
62057;BME280;48016;50.284;18.860;2022-10-31T00:55:08;98558.96;;;10.89;84.54
62057;BME280;48016;50.284;18.860;2022-10-31T00:57:35;98557.38;;;10.87;84.58
62057;BME280;48016;50.284;18.860;2022-10-31T01:00:02;98559.36;;;10.85;84.64
62057;BME280;48016;50.284;18.860;2022-10-31T01:02:29;98555.44;;;10.83;84.75
62057;BME280;48016;50.284;18.860;2022-10-31T01:04:55;98556.02;;;10.81;84.89
62057;BME280;48016;50.284;18.860;2022-10-31T01:07:22;98557.94;;;10.79;84.92
62057;BME280;48016;50.284;18.860;2022-10-31T01:09:49;98559.25;;;10.78;85.03
62057;BME280;48016;50.284;18.860;2022-10-31T01:12:15;98558.66;;;10.77;85.12
62057;BME280;48016;50.284;18.860;2022-10-31T01:14:44;98556.45;;;10.77;85.19
62057;BME280;48016;50.284;18.860;2022-10-31T01:17:12;98554.77;;;10.77;85.25
62057;BME280;48016;50.284;18.860;2022-10-31T01:19:41;98559.04;;;10.78;85.27
62057;BME280;48016;50.284;18.860;2022-10-31T01:22:08;98560.65;;;10.77;85.28
62057;BME280;48016;50.284;18.860;2022-10-31T01:24:42;98557.94;;;10.76;85.39
62057;BME280;48016;50.284;18.860;2022-10-31T01:27:09;98559.55;;;10.75;85.37
62057;BME280;48016;50.284;18.860;2022-10-31T01:29:35;98557.81;;;10.75;85.39
62057;BME280;48016;50.284;18.860;2022-10-31T01:32:02;98556.77;;;10.73;85.46
62057;BME280;48016;50.284;18.860;2022-10-31T01:34:29;98558.58;;;10.71;85.45
62057;BME280;48016;50.284;18.860;2022-10-31T01:36:56;98558.64;;;10.68;85.50
62057;BME280;48016;50.284;18.860;2022-10-31T01:39:23;98552.84;;;10.67;85.51
62057;BME280;48016;50.284;18.860;2022-10-31T01:41:52;98556.13;;;10.65;85.57
62057;BME280;48016;50.284;18.860;2022-10-31T01:47:07;98552.98;;;10.58;85.36
62057;BME280;48016;50.284;18.860;2022-10-31T01:52:30;98550.20;;;10.53;85.40
62057;BME280;48016;50.284;18.860;2022-10-31T01:55:09;98551.52;;;10.51;85.43
62057;BME280;48016;50.284;18.860;2022-10-31T01:57:38;98550.59;;;10.47;85.51
62057;BME280;48016;50.284;18.860;2022-10-31T02:00:09;98551.44;;;10.45;85.52
62057;BME280;48016;50.284;18.860;2022-10-31T02:02:36;98552.50;;;10.44;85.50
62057;BME280;48016;50.284;18.860;2022-10-31T02:05:06;98552.67;;;10.40;85.35
62057;BME280;48016;50.284;18.860;2022-10-31T02:07:55;98549.66;;;10.34;85.52
62057;BME280;48016;50.284;18.860;2022-10-31T02:10:24;98546.18;;;10.33;85.67
62057;BME280;48016;50.284;18.860;2022-10-31T02:12:55;98549.55;;;10.31;85.72
62057;BME280;48016;50.284;18.860;2022-10-31T02:15:23;98549.16;;;10.31;85.78
62057;BME280;48016;50.284;18.860;2022-10-31T02:17:49;98551.85;;;10.30;85.77
62057;BME280;48016;50.284;18.860;2022-10-31T02:20:25;98551.16;;;10.27;85.81
62057;BME280;48016;50.284;18.860;2022-10-31T02:36:53;98559.02;;;10.10;86.14
62057;BME280;48016;50.284;18.860;2022-10-31T02:39:35;98559.01;;;10.09;86.41
62057;BME280;48016;50.284;18.860;2022-10-31T02:42:10;98561.48;;;10.08;86.18
62057;BME280;48016;50.284;18.860;2022-10-31T02:44:48;98561.91;;;10.08;86.28
62057;BME280;48016;50.284;18.860;2022-10-31T02:47:26;98558.05;;;10.06;86.21
62057;BME280;48016;50.284;18.860;2022-10-31T02:50:13;98556.67;;;10.02;86.22
62057;BME280;48016;50.284;18.860;2022-10-31T02:52:42;98560.92;;;10.00;86.28
62057;BME280;48016;50.284;18.860;2022-10-31T02:58:07;98558.69;;;9.99;86.37
62057;BME280;48016;50.284;18.860;2022-10-31T03:00:59;98561.66;;;9.99;86.48
62057;BME280;48016;50.284;18.860;2022-10-31T03:06:37;98561.73;;;10.00;86.45
62057;BME280;48016;50.284;18.860;2022-10-31T03:12:09;98567.98;;;9.96;86.41
62057;BME280;48016;50.284;18.860;2022-10-31T03:20:13;98570.19;;;9.93;86.39
62057;BME280;48016;50.284;18.860;2022-10-31T03:22:42;98571.95;;;9.91;86.52
62057;BME280;48016;50.284;18.860;2022-10-31T03:25:09;98575.09;;;9.88;86.66
62057;BME280;48016;50.284;18.860;2022-10-31T03:27:39;98576.36;;;9.87;86.75
62057;BME280;48016;50.284;18.860;2022-10-31T03:30:10;98581.17;;;9.87;86.81
62057;BME280;48016;50.284;18.860;2022-10-31T03:32:44;98582.02;;;9.86;86.60
62057;BME280;48016;50.284;18.860;2022-10-31T03:35:14;98586.45;;;9.83;86.74
62057;BME280;48016;50.284;18.860;2022-10-31T03:37:43;98585.05;;;9.81;86.68
62057;BME280;48016;50.284;18.860;2022-10-31T03:40:12;98586.56;;;9.78;86.71
62057;BME280;48016;50.284;18.860;2022-10-31T03:42:41;98587.87;;;9.75;86.77
62057;BME280;48016;50.284;18.860;2022-10-31T03:47:37;98588.86;;;9.76;86.96
62057;BME280;48016;50.284;18.860;2022-10-31T03:50:06;98590.23;;;9.74;87.03
62057;BME280;48016;50.284;18.860;2022-10-31T03:52:45;98592.05;;;9.73;87.01
62057;BME280;48016;50.284;18.860;2022-10-31T03:55:19;98593.61;;;9.70;87.08
62057;BME280;48016;50.284;18.860;2022-10-31T03:58:07;98595.65;;;9.70;87.27
62057;BME280;48016;50.284;18.860;2022-10-31T04:00:38;98594.96;;;9.68;87.35
62057;BME280;48016;50.284;18.860;2022-10-31T04:03:14;98594.89;;;9.66;87.24
62057;BME280;48016;50.284;18.860;2022-10-31T04:05:45;98593.52;;;9.65;87.28
62057;BME280;48016;50.284;18.860;2022-10-31T04:08:16;98595.54;;;9.64;87.21
62057;BME280;48016;50.284;18.860;2022-10-31T04:10:46;98595.73;;;9.62;87.24
62057;BME280;48016;50.284;18.860;2022-10-31T04:13:16;98595.83;;;9.62;87.32
62057;BME280;48016;50.284;18.860;2022-10-31T04:15:45;98600.96;;;9.59;87.21
62057;BME280;48016;50.284;18.860;2022-10-31T04:18:12;98603.47;;;9.55;87.14
62057;BME280;48016;50.284;18.860;2022-10-31T04:20:40;98606.63;;;9.50;87.32
62057;BME280;48016;50.284;18.860;2022-10-31T04:23:19;98604.94;;;9.47;87.24
62057;BME280;48016;50.284;18.860;2022-10-31T04:25:46;98601.84;;;9.45;87.33
62057;BME280;48016;50.284;18.860;2022-10-31T04:28:13;98607.89;;;9.43;87.48
62057;BME280;48016;50.284;18.860;2022-10-31T04:30:40;98608.00;;;9.44;87.51
62057;BME280;48016;50.284;18.860;2022-10-31T04:33:06;98609.15;;;9.44;87.43
62057;BME280;48016;50.284;18.860;2022-10-31T04:35:35;98608.31;;;9.43;87.25
62057;BME280;48016;50.284;18.860;2022-10-31T04:38:02;98606.90;;;9.39;87.24
62057;BME280;48016;50.284;18.860;2022-10-31T04:40:29;98606.76;;;9.35;87.20
62057;BME280;48016;50.284;18.860;2022-10-31T04:42:56;98606.44;;;9.33;87.21
62057;BME280;48016;50.284;18.860;2022-10-31T04:45:23;98608.91;;;9.32;87.31
62057;BME280;48016;50.284;18.860;2022-10-31T04:47:50;98610.34;;;9.31;87.39
62057;BME280;48016;50.284;18.860;2022-10-31T04:50:17;98609.30;;;9.31;87.59
62057;BME280;48016;50.284;18.860;2022-10-31T04:52:45;98609.34;;;9.32;87.36
62057;BME280;48016;50.284;18.860;2022-10-31T04:55:12;98606.39;;;9.31;87.44
62057;BME280;48016;50.284;18.860;2022-10-31T04:57:41;98609.36;;;9.30;87.37
62057;BME280;48016;50.284;18.860;2022-10-31T05:00:14;98611.10;;;9.28;87.52
62057;BME280;48016;50.284;18.860;2022-10-31T05:02:49;98607.02;;;9.27;87.65
62057;BME280;48016;50.284;18.860;2022-10-31T05:05:23;98606.51;;;9.25;87.78
62057;BME280;48016;50.284;18.860;2022-10-31T05:07:51;98601.52;;;9.24;87.89
62057;BME280;48016;50.284;18.860;2022-10-31T05:10:21;98600.30;;;9.25;87.89
62057;BME280;48016;50.284;18.860;2022-10-31T05:12:50;98602.28;;;9.25;87.82
62057;BME280;48016;50.284;18.860;2022-10-31T05:15:19;98603.01;;;9.26;87.76
62057;BME280;48016;50.284;18.860;2022-10-31T05:17:47;98603.85;;;9.27;87.68
62057;BME280;48016;50.284;18.860;2022-10-31T05:20:15;98606.76;;;9.30;87.59
62057;BME280;48016;50.284;18.860;2022-10-31T05:22:50;98610.14;;;9.29;87.55
62057;BME280;48016;50.284;18.860;2022-10-31T05:25:18;98612.46;;;9.27;87.71
62057;BME280;48016;50.284;18.860;2022-10-31T05:27:48;98612.85;;;9.24;87.90
62057;BME280;48016;50.284;18.860;2022-10-31T05:30:19;98613.63;;;9.23;87.88
62057;BME280;48016;50.284;18.860;2022-10-31T05:32:48;98616.16;;;9.22;87.72
62057;BME280;48016;50.284;18.860;2022-10-31T05:35:18;98622.33;;;9.23;87.63
62057;BME280;48016;50.284;18.860;2022-10-31T05:37:45;98622.67;;;9.25;87.72
62057;BME280;48016;50.284;18.860;2022-10-31T05:40:14;98628.33;;;9.26;87.76
62057;BME280;48016;50.284;18.860;2022-10-31T05:42:42;98630.69;;;9.28;87.91
62057;BME280;48016;50.284;18.860;2022-10-31T05:45:11;98629.64;;;9.31;87.90
62057;BME280;48016;50.284;18.860;2022-10-31T05:47:42;98631.80;;;9.31;87.74
62057;BME280;48016;50.284;18.860;2022-10-31T05:50:16;98633.99;;;9.29;87.51
62057;BME280;48016;50.284;18.860;2022-10-31T05:52:43;98635.85;;;9.28;87.56
62057;BME280;48016;50.284;18.860;2022-10-31T05:55:10;98639.73;;;9.27;87.72
62057;BME280;48016;50.284;18.860;2022-10-31T05:57:37;98639.41;;;9.30;87.91
62057;BME280;48016;50.284;18.860;2022-10-31T06:00:05;98643.77;;;9.36;88.01
62057;BME280;48016;50.284;18.860;2022-10-31T06:02:32;98646.29;;;9.39;87.95
62057;BME280;48016;50.284;18.860;2022-10-31T06:05:01;98648.25;;;9.45;87.88
62057;BME280;48016;50.284;18.860;2022-10-31T06:07:31;98645.86;;;9.50;87.57
62057;BME280;48016;50.284;18.860;2022-10-31T06:09:58;98649.25;;;9.52;87.66
62057;BME280;48016;50.284;18.860;2022-10-31T06:12:26;98649.97;;;9.55;87.55
62057;BME280;48016;50.284;18.860;2022-10-31T06:14:52;98653.91;;;9.59;87.77
62057;BME280;48016;50.284;18.860;2022-10-31T06:17:20;98656.05;;;9.65;87.92
62057;BME280;48016;50.284;18.860;2022-10-31T06:19:46;98658.68;;;9.73;87.88
62057;BME280;48016;50.284;18.860;2022-10-31T06:22:14;98659.66;;;9.77;87.86
62057;BME280;48016;50.284;18.860;2022-10-31T06:24:41;98660.13;;;9.84;87.75
62057;BME280;48016;50.284;18.860;2022-10-31T06:27:09;98658.41;;;9.89;87.68
62057;BME280;48016;50.284;18.860;2022-10-31T06:29:35;98658.80;;;9.97;87.60
62057;BME280;48016;50.284;18.860;2022-10-31T06:32:02;98661.44;;;10.06;87.51
62057;BME280;48016;50.284;18.860;2022-10-31T06:34:28;98661.95;;;10.16;87.70
62057;BME280;48016;50.284;18.860;2022-10-31T06:36:55;98663.77;;;10.27;87.77
62057;BME280;48016;50.284;18.860;2022-10-31T06:39:21;98664.71;;;10.40;87.82
62057;BME280;48016;50.284;18.860;2022-10-31T06:41:48;98667.91;;;10.52;87.73
62057;BME280;48016;50.284;18.860;2022-10-31T06:44:15;98668.73;;;10.64;87.53
62057;BME280;48016;50.284;18.860;2022-10-31T06:46:42;98669.36;;;10.76;87.47
62057;BME280;48016;50.284;18.860;2022-10-31T06:49:09;98675.12;;;10.88;87.41
62057;BME280;48016;50.284;18.860;2022-10-31T06:51:35;98674.80;;;11.00;87.25
62057;BME280;48016;50.284;18.860;2022-10-31T06:54:02;98675.81;;;11.11;87.17
62057;BME280;48016;50.284;18.860;2022-10-31T06:56:28;98675.44;;;11.18;87.02
62057;BME280;48016;50.284;18.860;2022-10-31T06:58:55;98678.25;;;11.27;86.84
62057;BME280;48016;50.284;18.860;2022-10-31T07:01:22;98683.77;;;11.39;86.66
62057;BME280;48016;50.284;18.860;2022-10-31T07:03:49;98684.04;;;11.51;86.41
62057;BME280;48016;50.284;18.860;2022-10-31T07:06:16;98684.57;;;11.67;86.22
62057;BME280;48016;50.284;18.860;2022-10-31T07:08:42;98683.31;;;11.84;85.82
62057;BME280;48016;50.284;18.860;2022-10-31T07:11:09;98685.04;;;12.01;85.64
62057;BME280;48016;50.284;18.860;2022-10-31T07:13:35;98689.11;;;12.18;85.48
62057;BME280;48016;50.284;18.860;2022-10-31T07:16:04;98694.55;;;12.32;85.12
62057;BME280;48016;50.284;18.860;2022-10-31T07:18:33;98697.90;;;12.47;84.83
62057;BME280;48016;50.284;18.860;2022-10-31T07:21:00;98694.05;;;12.59;84.42
62057;BME280;48016;50.284;18.860;2022-10-31T07:23:26;98692.12;;;12.69;84.04
62057;BME280;48016;50.284;18.860;2022-10-31T07:25:57;98692.07;;;12.76;83.61
62057;BME280;48016;50.284;18.860;2022-10-31T07:28:25;98694.35;;;12.81;83.16
62057;BME280;48016;50.284;18.860;2022-10-31T07:30:56;98695.91;;;12.88;82.89
62057;BME280;48016;50.284;18.860;2022-10-31T07:33:24;98695.21;;;12.98;82.86
62057;BME280;48016;50.284;18.860;2022-10-31T07:35:54;98691.28;;;13.09;82.66
62057;BME280;48016;50.284;18.860;2022-10-31T07:38:20;98693.29;;;13.19;82.49
62057;BME280;48016;50.284;18.860;2022-10-31T07:40:50;98696.41;;;13.28;82.06
62057;BME280;48016;50.284;18.860;2022-10-31T07:43:18;98692.80;;;13.33;81.47
62057;BME280;48016;50.284;18.860;2022-10-31T07:45:49;98693.50;;;13.39;81.31
62057;BME280;48016;50.284;18.860;2022-10-31T07:48:16;98693.52;;;13.44;81.04
62057;BME280;48016;50.284;18.860;2022-10-31T07:50:43;98696.13;;;13.53;81.14
62057;BME280;48016;50.284;18.860;2022-10-31T07:53:11;98697.99;;;13.58;80.58
62057;BME280;48016;50.284;18.860;2022-10-31T07:55:38;98694.35;;;13.58;80.45
62057;BME280;48016;50.284;18.860;2022-10-31T07:58:10;98696.27;;;13.61;80.50
62057;BME280;48016;50.284;18.860;2022-10-31T08:00:39;98698.80;;;13.70;80.30
62057;BME280;48016;50.284;18.860;2022-10-31T08:03:11;98699.82;;;13.77;80.08
62057;BME280;48016;50.284;18.860;2022-10-31T08:05:39;98700.59;;;13.82;79.78
62057;BME280;48016;50.284;18.860;2022-10-31T08:08:08;98696.84;;;13.85;79.67
62057;BME280;48016;50.284;18.860;2022-10-31T08:10:35;98697.46;;;13.91;79.42
62057;BME280;48016;50.284;18.860;2022-10-31T08:13:03;98702.88;;;13.96;79.39
62057;BME280;48016;50.284;18.860;2022-10-31T08:15:30;98697.73;;;14.05;79.17
62057;BME280;48016;50.284;18.860;2022-10-31T08:17:57;98695.84;;;14.11;78.55
62057;BME280;48016;50.284;18.860;2022-10-31T08:20:24;98699.84;;;14.18;78.65
62057;BME280;48016;50.284;18.860;2022-10-31T08:22:59;98706.27;;;14.28;78.85
62057;BME280;48016;50.284;18.860;2022-10-31T08:25:29;98703.41;;;14.35;78.41
62057;BME280;48016;50.284;18.860;2022-10-31T08:27:56;98705.47;;;14.41;78.19
62057;BME280;48016;50.284;18.860;2022-10-31T08:30:25;98703.80;;;14.46;78.16
62057;BME280;48016;50.284;18.860;2022-10-31T08:33:05;98707.92;;;14.49;77.68
62057;BME280;48016;50.284;18.860;2022-10-31T08:35:34;98710.03;;;14.53;77.12
62057;BME280;48016;50.284;18.860;2022-10-31T08:38:01;98709.48;;;14.57;76.87
62057;BME280;48016;50.284;18.860;2022-10-31T08:40:30;98709.71;;;14.59;76.26
62057;BME280;48016;50.284;18.860;2022-10-31T08:43:05;98710.33;;;14.64;76.38
62057;BME280;48016;50.284;18.860;2022-10-31T08:45:33;98712.33;;;14.69;76.43
62057;BME280;48016;50.284;18.860;2022-10-31T08:48:04;98714.40;;;14.74;76.08
62057;BME280;48016;50.284;18.860;2022-10-31T08:50:33;98711.67;;;14.77;75.55
62057;BME280;48016;50.284;18.860;2022-10-31T08:53:01;98712.39;;;14.82;75.60
62057;BME280;48016;50.284;18.860;2022-10-31T08:55:29;98709.61;;;14.93;76.14
62057;BME280;48016;50.284;18.860;2022-10-31T08:57:59;98716.89;;;15.05;76.28
62057;BME280;48016;50.284;18.860;2022-10-31T09:00:25;98715.79;;;15.18;76.35
62057;BME280;48016;50.284;18.860;2022-10-31T09:03:05;98711.85;;;15.25;75.86
62057;BME280;48016;50.284;18.860;2022-10-31T09:05:32;98713.30;;;15.37;75.55
62057;BME280;48016;50.284;18.860;2022-10-31T09:08:02;98712.73;;;15.45;75.11
62057;BME280;48016;50.284;18.860;2022-10-31T09:10:30;98716.08;;;15.53;75.08
62057;BME280;48016;50.284;18.860;2022-10-31T09:13:06;98716.56;;;15.60;74.41
62057;BME280;48016;50.284;18.860;2022-10-31T09:15:36;98714.82;;;15.67;74.26
62057;BME280;48016;50.284;18.860;2022-10-31T09:18:03;98716.22;;;15.75;73.86
62057;BME280;48016;50.284;18.860;2022-10-31T09:20:31;98719.24;;;15.80;73.91
62057;BME280;48016;50.284;18.860;2022-10-31T09:23:00;98715.02;;;15.88;73.86
62057;BME280;48016;50.284;18.860;2022-10-31T09:25:27;98719.23;;;15.96;73.81
62057;BME280;48016;50.284;18.860;2022-10-31T09:27:57;98716.58;;;16.04;73.68
62057;BME280;48016;50.284;18.860;2022-10-31T09:30:26;98721.17;;;16.12;73.31
62057;BME280;48016;50.284;18.860;2022-10-31T09:32:58;98721.86;;;16.17;73.10
62057;BME280;48016;50.284;18.860;2022-10-31T09:35:26;98720.69;;;16.21;72.91
62057;BME280;48016;50.284;18.860;2022-10-31T09:40:33;98722.78;;;16.36;72.60
62057;BME280;48016;50.284;18.860;2022-10-31T09:45:41;98719.11;;;16.47;72.21
62057;BME280;48016;50.284;18.860;2022-10-31T09:48:28;98718.58;;;16.55;72.19
62057;BME280;48016;50.284;18.860;2022-10-31T09:51:19;98715.23;;;16.65;71.65
62057;BME280;48016;50.284;18.860;2022-10-31T09:53:59;98716.47;;;16.73;71.86
62057;BME280;48016;50.284;18.860;2022-10-31T09:56:28;98719.34;;;16.80;71.51
62057;BME280;48016;50.284;18.860;2022-10-31T09:58:59;98716.71;;;16.87;71.16
62057;BME280;48016;50.284;18.860;2022-10-31T10:04:05;98719.65;;;17.02;71.38
62057;BME280;48016;50.284;18.860;2022-10-31T10:06:42;98722.36;;;17.09;71.30
62057;BME280;48016;50.284;18.860;2022-10-31T10:09:11;98719.33;;;17.13;70.86
62057;BME280;48016;50.284;18.860;2022-10-31T10:27:49;98708.14;;;17.53;69.13
62057;BME280;48016;50.284;18.860;2022-10-31T10:33:16;98709.20;;;17.62;68.54
62057;BME280;48016;50.284;18.860;2022-10-31T10:35:52;98707.15;;;17.65;68.52
62057;BME280;48016;50.284;18.860;2022-10-31T10:38:37;98705.64;;;17.67;68.30
62057;BME280;48016;50.284;18.860;2022-10-31T10:41:14;98703.97;;;17.71;68.29
62057;BME280;48016;50.284;18.860;2022-10-31T10:43:42;98696.38;;;17.73;68.42
62057;BME280;48016;50.284;18.860;2022-10-31T10:49:18;98696.17;;;17.80;68.51
62057;BME280;48016;50.284;18.860;2022-10-31T11:00:00;98693.91;;;17.97;68.39
62057;BME280;48016;50.284;18.860;2022-10-31T11:02:32;98690.15;;;18.02;68.00
62057;BME280;48016;50.284;18.860;2022-10-31T11:05:00;98689.48;;;18.06;67.56
62057;BME280;48016;50.284;18.860;2022-10-31T11:07:38;98689.58;;;18.11;66.34
62057;BME280;48016;50.284;18.860;2022-10-31T11:10:12;98689.75;;;18.15;66.34
62057;BME280;48016;50.284;18.860;2022-10-31T11:12:44;98688.68;;;18.16;66.01
62057;BME280;48016;50.284;18.860;2022-10-31T11:15:21;98684.92;;;18.19;66.00
62057;BME280;48016;50.284;18.860;2022-10-31T11:17:51;98680.89;;;18.23;65.72
62057;BME280;48016;50.284;18.860;2022-10-31T11:22:46;98677.27;;;18.30;66.06
62057;BME280;48016;50.284;18.860;2022-10-31T11:27:46;98671.52;;;18.34;65.20
62057;BME280;48016;50.284;18.860;2022-10-31T11:30:14;98670.95;;;18.35;65.16
62057;BME280;48016;50.284;18.860;2022-10-31T11:32:49;98668.06;;;18.34;64.31
62057;BME280;48016;50.284;18.860;2022-10-31T11:35:22;98667.70;;;18.32;64.10
62057;BME280;48016;50.284;18.860;2022-10-31T11:37:50;98667.92;;;18.33;64.64
62057;BME280;48016;50.284;18.860;2022-10-31T11:40:22;98670.57;;;18.35;64.30
62057;BME280;48016;50.284;18.860;2022-10-31T11:42:51;98670.10;;;18.37;64.45
62057;BME280;48016;50.284;18.860;2022-10-31T11:45:32;98667.94;;;18.36;63.80
62057;BME280;48016;50.284;18.860;2022-10-31T11:48:01;98665.23;;;18.39;63.77
62057;BME280;48016;50.284;18.860;2022-10-31T11:50:40;98667.92;;;18.40;63.81
62057;BME280;48016;50.284;18.860;2022-10-31T11:53:29;98666.17;;;18.40;63.98
62057;BME280;48016;50.284;18.860;2022-10-31T11:56:10;98665.06;;;18.41;63.96
62057;BME280;48016;50.284;18.860;2022-10-31T11:58:39;98663.29;;;18.42;63.69
62057;BME280;48016;50.284;18.860;2022-10-31T12:01:08;98659.41;;;18.42;63.74
62057;BME280;48016;50.284;18.860;2022-10-31T12:03:59;98655.73;;;18.45;63.87
62057;BME280;48016;50.284;18.860;2022-10-31T12:06:34;98658.91;;;18.48;63.45
62057;BME280;48016;50.284;18.860;2022-10-31T12:12:04;98657.35;;;18.51;63.32
62057;BME280;48016;50.284;18.860;2022-10-31T12:23:29;98653.30;;;18.61;64.55
62057;BME280;48016;50.284;18.860;2022-10-31T12:31:29;98646.13;;;18.64;63.51
62057;BME280;48016;50.284;18.860;2022-10-31T12:39:25;98645.11;;;18.63;62.43
62057;BME280;48016;50.284;18.860;2022-10-31T12:56:23;98636.15;;;18.55;62.02
62057;BME280;48016;50.284;18.860;2022-10-31T12:59:09;98632.90;;;18.56;62.00
62057;BME280;48016;50.284;18.860;2022-10-31T13:01:44;98630.23;;;18.55;62.07
62057;BME280;48016;50.284;18.860;2022-10-31T13:04:39;98628.77;;;18.54;62.53
62057;BME280;48016;50.284;18.860;2022-10-31T13:07:13;98626.67;;;18.52;62.32
62057;BME280;48016;50.284;18.860;2022-10-31T13:09:48;98625.11;;;18.50;62.30
62057;BME280;48016;50.284;18.860;2022-10-31T13:12:20;98624.25;;;18.49;62.21
62057;BME280;48016;50.284;18.860;2022-10-31T13:14:57;98624.98;;;18.48;62.24
62057;BME280;48016;50.284;18.860;2022-10-31T13:17:30;98626.67;;;18.48;61.90
62057;BME280;48016;50.284;18.860;2022-10-31T13:20:32;98625.95;;;18.46;62.16
62057;BME280;48016;50.284;18.860;2022-10-31T13:25:36;98622.36;;;18.41;61.77
62057;BME280;48016;50.284;18.860;2022-10-31T13:28:45;98619.56;;;18.41;61.82
62057;BME280;48016;50.284;18.860;2022-10-31T13:31:09;98624.11;;;18.41;61.76
62057;BME280;48016;50.284;18.860;2022-10-31T13:33:44;98623.31;;;18.39;61.87
62057;BME280;48016;50.284;18.860;2022-10-31T13:36:29;98625.52;;;18.38;61.94
62057;BME280;48016;50.284;18.860;2022-10-31T13:44:27;98622.63;;;18.30;62.28
62057;BME280;48016;50.284;18.860;2022-10-31T13:46:56;98621.54;;;18.26;62.41
62057;BME280;48016;50.284;18.860;2022-10-31T13:57:30;98618.48;;;18.16;62.90
62057;BME280;48016;50.284;18.860;2022-10-31T13:59:56;98619.46;;;18.12;62.90
62057;BME280;48016;50.284;18.860;2022-10-31T14:02:35;98619.27;;;18.07;62.98
62057;BME280;48016;50.284;18.860;2022-10-31T14:05:21;98619.64;;;18.03;63.09
62057;BME280;48016;50.284;18.860;2022-10-31T14:07:49;98616.76;;;17.99;63.16
62057;BME280;48016;50.284;18.860;2022-10-31T14:13:15;98618.54;;;17.89;63.74
62057;BME280;48016;50.284;18.860;2022-10-31T14:16:18;98614.63;;;17.83;63.87
62057;BME280;48016;50.284;18.860;2022-10-31T14:18:50;98611.32;;;17.76;64.04
62057;BME280;48016;50.284;18.860;2022-10-31T14:23:51;98611.87;;;17.67;64.35
62057;BME280;48016;50.284;18.860;2022-10-31T14:28:50;98609.59;;;17.53;64.80
62057;BME280;48016;50.284;18.860;2022-10-31T14:31:42;98611.39;;;17.48;64.88
62057;BME280;48016;50.284;18.860;2022-10-31T14:34:32;98606.33;;;17.42;65.00
62057;BME280;48016;50.284;18.860;2022-10-31T14:37:16;98605.86;;;17.36;65.34
62057;BME280;48016;50.284;18.860;2022-10-31T14:40:35;98605.50;;;17.29;65.53
62057;BME280;48016;50.284;18.860;2022-10-31T14:50:23;98604.09;;;17.04;66.14
62057;BME280;48016;50.284;18.860;2022-10-31T14:52:54;98600.34;;;16.97;66.46
62057;BME280;48016;50.284;18.860;2022-10-31T14:55:24;98596.79;;;16.87;66.59
62057;BME280;48016;50.284;18.860;2022-10-31T14:58:01;98595.91;;;16.81;66.74
62057;BME280;48016;50.284;18.860;2022-10-31T15:00:31;98590.02;;;16.74;66.87
62057;BME280;48016;50.284;18.860;2022-10-31T15:03:05;98591.08;;;16.68;67.17
62057;BME280;48016;50.284;18.860;2022-10-31T15:05:42;98588.86;;;16.61;67.47
62057;BME280;48016;50.284;18.860;2022-10-31T15:11:23;98588.04;;;16.43;68.17
62057;BME280;48016;50.284;18.860;2022-10-31T15:13:57;98587.58;;;16.34;68.35
62057;BME280;48016;50.284;18.860;2022-10-31T15:16:31;98591.45;;;16.27;68.50
62057;BME280;48016;50.284;18.860;2022-10-31T15:19:00;98593.58;;;16.19;68.67
62057;BME280;48016;50.284;18.860;2022-10-31T15:21:29;98589.89;;;16.10;68.95
62057;BME280;48016;50.284;18.860;2022-10-31T15:23:58;98592.20;;;16.00;69.10
62057;BME280;48016;50.284;18.860;2022-10-31T15:26:31;98593.13;;;15.91;69.19
62057;BME280;48016;50.284;18.860;2022-10-31T15:29:01;98590.14;;;15.82;69.17
62057;BME280;48016;50.284;18.860;2022-10-31T15:31:29;98592.80;;;15.73;69.19
62057;BME280;48016;50.284;18.860;2022-10-31T15:34:15;98591.78;;;15.65;69.39
62057;BME280;48016;50.284;18.860;2022-10-31T15:36:42;98590.04;;;15.55;69.72
62057;BME280;48016;50.284;18.860;2022-10-31T15:39:11;98589.30;;;15.47;69.75
62057;BME280;48016;50.284;18.860;2022-10-31T15:41:52;98585.90;;;15.40;70.03
62057;BME280;48016;50.284;18.860;2022-10-31T15:47:07;98589.23;;;15.26;70.39